Time;durP1;ratioP1;P1;durP2;ratioP2;P2;SDS_P1;SDS_P2;PMS_P1;PMS_P2;Temp;Humidity;BMP_temperature;BMP_pressure;BME280_temperature;BME280_humidity;BME280_pressure;Samples;Min_cycle;Max_cycle;Signal;HPM_P1;HPM_P2
2022/04/11 00:00:32;;;;;;;;;;;;;;;22.19;39.87;94642.06;2090035;28;1057;-73
2022/04/11 00:01:34;;;;;;;;;;;;;;;22.21;39.54;94645.31;2090071;28;1040;-73
2022/04/11 00:02:35;;;;;;;;;;;;;;;22.20;39.82;94638.34;2088356;28;1483;-73
2022/04/11 00:03:37;;;;;;;;;;;;;;;22.17;39.94;94642.31;2095711;28;1017;-71
2022/04/11 00:04:39;;;;;;;;;;;;;;;22.17;39.88;94642.31;2098874;28;999;-69
2022/04/11 00:05:40;;;;;;;;;;;;;;;22.18;40.45;94640.44;2088407;28;1726;-71
2022/04/11 00:06:42;;;;;;;;;;;;;;;22.17;39.61;94642.31;2097091;28;1541;-71
2022/04/11 00:07:43;;;;;;;;;;;;;;;22.17;40.39;94636.09;2098204;28;1046;-71
2022/04/11 00:08:45;;;;;;;;;;;;;;;22.26;39.80;94640.09;2092113;28;1898;-71
2022/04/11 00:09:46;;;;;;;;;;;;;;;22.32;39.73;94653.38;2098289;28;1275;-72
2022/04/11 00:10:48;;;;;;;;;;;;;;;22.37;39.90;94647.34;2099237;28;1107;-72
2022/04/11 00:11:50;;;;;;;;;;;;;;;22.37;40.05;94647.34;2098649;28;1083;-72
2022/04/11 00:12:59;;;;;;;;;;;;;;;22.37;39.90;94650.00;2097992;28;1272;-72
2022/04/11 00:14:06;;;;;;;;;;;;;;;22.39;39.67;94649.75;2094945;28;1414;-72
2022/04/11 00:15:08;;;;;;;;;;;;;;;22.41;39.74;94659.19;2090040;28;1837;-73
2022/04/11 00:16:09;;;;;;;;;;;;;;;22.43;39.47;94654.44;2083464;28;1659;-72
2022/04/11 00:17:11;;;;;;;;;;;;;;;22.44;39.48;94649.88;2094552;28;1465;-72
2022/04/11 00:18:12;;;;;;;;;;;;;;;22.45;39.40;94654.19;2092634;28;1668;-73
2022/04/11 00:19:14;;;;;;;;;;;;;;;22.44;39.50;94658.72;2089331;28;1495;-72
2022/04/11 00:20:16;;;;;;;;;;;;;;;22.45;39.67;94652.34;2098120;28;1135;-72
2022/04/11 00:21:17;;;;;;;;;;;;;;;22.46;39.42;94663.84;2098194;28;1305;-72
2022/04/11 00:22:19;;;;;;;;;;;;;;;22.45;39.34;94660.38;2090215;28;1715;-72
2022/04/11 00:23:20;;;;;;;;;;;;;;;22.46;39.44;94664.66;2089546;28;1363;-71
2022/04/11 00:24:22;;;;;;;;;;;;;;;22.48;39.16;94662.59;2090376;28;1646;-71
2022/04/11 00:25:24;;;;;;;;;;;;;;;22.49;39.30;94663.41;2097075;28;1465;-72
2022/04/11 00:26:25;;;;;;;;;;;;;;;22.48;39.65;94673.28;2090591;28;1647;-72
2022/04/11 00:27:27;;;;;;;;;;;;;;;22.50;39.68;94671.19;2084516;28;1674;-71
2022/04/11 00:28:28;;;;;;;;;;;;;;;22.50;39.55;94670.38;2090539;28;1906;-71
2022/04/11 00:29:30;;;;;;;;;;;;;;;22.51;39.40;94672.81;2096745;28;1942;-71
2022/04/11 00:30:32;;;;;;;;;;;;;;;22.50;39.26;94673.84;2096245;28;1546;-71
2022/04/11 00:31:33;;;;;;;;;;;;;;;22.49;39.15;94668.75;2098290;28;1047;-71
2022/04/11 00:32:43;;;;;;;;;;;;;;;22.48;39.56;94662.59;2097596;28;952;-70
2022/04/11 00:33:45;;;;;;;;;;;;;;;22.49;39.20;94669.56;2092715;28;1682;-71
2022/04/11 00:34:47;;;;;;;;;;;;;;;22.48;39.18;94673.28;2093761;28;1515;-72
2022/04/11 00:35:48;;;;;;;;;;;;;;;22.48;39.08;94677.81;2097579;28;1231;-71
2022/04/11 00:36:50;;;;;;;;;;;;;;;22.50;39.21;94675.72;2094598;28;1619;-72
2022/04/11 00:37:51;;;;;;;;;;;;;;;22.52;39.42;94668.28;2089010;28;1722;-72
2022/04/11 00:38:53;;;;;;;;;;;;;;;22.51;39.07;94675.50;2082420;28;1584;-71
2022/04/11 00:39:55;;;;;;;;;;;;;;;22.53;39.27;94683.28;2088315;28;1385;-71
2022/04/11 00:40:56;;;;;;;;;;;;;;;22.54;39.24;94684.94;2096625;28;1852;-73
2022/04/11 00:42:06;;;;;;;;;;;;;;;22.50;39.23;94684.56;2088523;28;1656;-71
2022/04/11 00:43:07;;;;;;;;;;;;;;;22.50;39.16;94683.75;2089166;28;1514;-72
2022/04/11 00:44:09;;;;;;;;;;;;;;;22.50;39.21;94692.59;2086798;28;1254;-71
2022/04/11 00:45:10;;;;;;;;;;;;;;;22.50;39.14;94687.25;2086783;28;1301;-72
2022/04/11 00:46:12;;;;;;;;;;;;;;;22.50;39.25;94700.63;2089153;28;922;-71
2022/04/11 00:47:14;;;;;;;;;;;;;;;22.49;39.19;94690.97;2098159;28;1175;-71
2022/04/11 00:48:15;;;;;;;;;;;;;;;22.51;38.88;94693.44;2097498;28;1035;-71
2022/04/11 00:49:17;;;;;;;;;;;;;;;22.49;39.04;94695.53;2090259;28;1987;-72
2022/04/11 00:50:18;;;;;;;;;;;;;;;22.48;39.35;94689.34;2088915;28;1076;-71
2022/04/11 00:51:21;;;;;;;;;;;;;;;22.46;39.23;94696.00;2081032;28;1508;-72
2022/04/11 00:52:23;;;;;;;;;;;;;;;22.39;39.39;94700.63;2078978;28;1393;-71
2022/04/11 00:53:25;;;;;;;;;;;;;;;22.35;39.59;94703.75;2089395;28;1691;-75
2022/04/11 00:54:27;;;;;;;;;;;;;;;22.30;39.46;94700.94;2092099;28;1358;-75
2022/04/11 00:55:29;;;;;;;;;;;;;;;22.28;39.52;94699.53;2098245;28;1115;-75
2022/04/11 00:56:35;;;;;;;;;;;;;;;22.26;39.52;94702.47;2092218;28;1651;-75
2022/04/11 00:57:37;;;;;;;;;;;;;;;22.25;39.90;94700.00;2094337;28;1507;-75
2022/04/11 00:58:39;;;;;;;;;;;;;;;22.20;40.02;94710.59;2088996;28;1025;-75
2022/04/11 00:59:41;;;;;;;;;;;;;;;22.18;39.84;94704.66;2093846;28;1484;-75
2022/04/11 01:00:43;;;;;;;;;;;;;;;22.18;39.74;94704.66;2092954;28;1178;-75
2022/04/11 01:01:44;;;;;;;;;;;;;;;22.16;40.28;94715.56;2097611;28;1051;-75
2022/04/11 01:02:46;;;;;;;;;;;;;;;22.16;39.99;94709.41;2092255;28;1205;-74
2022/04/11 01:03:48;;;;;;;;;;;;;;;22.14;40.16;94715.00;2089936;28;1321;-74
2022/04/11 01:04:49;;;;;;;;;;;;;;;22.12;40.04;94717.91;2087216;28;1474;-73
2022/04/11 01:05:51;;;;;;;;;;;;;;;22.12;40.34;94715.22;2088903;28;1456;-75
2022/04/11 01:06:54;;;;;;;;;;;;;;;22.11;40.41;94721.63;2090223;28;1610;-75
2022/04/11 01:08:02;;;;;;;;;;;;;;;22.09;40.28;94721.03;2092343;28;1559;-75
2022/04/11 01:09:04;;;;;;;;;;;;;;;22.10;40.12;94728.00;2089807;28;1983;-74
2022/04/11 01:10:06;;;;;;;;;;;;;;;22.10;40.06;94724.53;2090460;28;1184;-74
2022/04/11 01:11:08;;;;;;;;;;;;;;;22.09;40.40;94729.06;2101416;28;1636;-73
2022/04/11 01:12:11;;;;;;;;;;;;;;;22.09;40.44;94734.41;2094242;28;1518;-73
2022/04/11 01:13:13;;;;;;;;;;;;;;;22.07;40.25;94725.78;2086918;28;1548;-73
2022/04/11 01:14:15;;;;;;;;;;;;;;;22.07;40.42;94736.50;2090463;28;1341;-74
2022/04/11 01:15:16;;;;;;;;;;;;;;;22.09;40.35;94745.13;2089897;28;1266;-74
2022/04/11 01:16:26;;;;;;;;;;;;;;;22.09;40.43;94734.41;2089487;28;997;-74
2022/04/11 01:17:31;;;;;;;;;;;;;;;22.08;40.39;94751.53;2089940;28;1190;-74
2022/04/11 01:18:36;;;;;;;;;;;;;;;22.09;40.11;94745.13;2089550;28;1325;-73
2022/04/11 01:19:37;;;;;;;;;;;;;;;22.08;40.30;94742.66;2097617;28;1179;-74
2022/04/11 01:20:39;;;;;;;;;;;;;;;22.08;40.32;94746.19;2105377;28;1620;-73
2022/04/11 01:21:41;;;;;;;;;;;;;;;22.09;40.34;94755.00;2079841;28;1222;-73
2022/04/11 01:22:43;;;;;;;;;;;;;;;22.08;40.26;94759.56;2084655;28;1368;-74
2022/04/11 01:23:45;;;;;;;;;;;;;;;22.07;40.36;94757.91;2096151;28;1342;-73
2022/04/11 01:24:47;;;;;;;;;;;;;;;22.07;40.61;94759.75;2089613;28;1037;-75
2022/04/11 01:25:49;;;;;;;;;;;;;;;22.08;40.37;94762.22;2089034;28;1497;-75
2022/04/11 01:26:51;;;;;;;;;;;;;;;22.08;40.48;94758.72;2080835;28;1108;-75
2022/04/11 01:27:53;;;;;;;;;;;;;;;22.09;40.21;94766.53;2083046;28;1659;-74
2022/04/11 01:28:55;;;;;;;;;;;;;;;22.08;40.62;94758.72;2082057;28;1979;-74
2022/04/11 01:29:57;;;;;;;;;;;;;;;22.07;40.60;94763.25;2086680;28;2132;-74
2022/04/11 01:30:58;;;;;;;;;;;;;;;22.06;40.65;94761.63;2095533;28;1441;-75
2022/04/11 01:32:02;;;;;;;;;;;;;;;22.06;40.60;94766.97;2097437;28;1198;-74
2022/04/11 01:33:13;;;;;;;;;;;;;;;22.08;40.54;94764.06;2097442;28;1096;-73
2022/04/11 01:34:15;;;;;;;;;;;;;;;22.05;40.53;94762.69;2086817;28;1523;-74
2022/04/11 01:35:21;;;;;;;;;;;;;;;22.07;40.50;94767.78;2086230;28;1529;-74
2022/04/11 01:36:23;;;;;;;;;;;;;;;22.08;40.36;94764.91;2090491;28;1146;-74
2022/04/11 01:37:24;;;;;;;;;;;;;;;22.07;40.59;94771.28;2089053;28;1509;-73
2022/04/11 01:38:26;;;;;;;;;;;;;;;22.07;40.58;94763.25;2089195;28;1701;-75
2022/04/11 01:39:27;;;;;;;;;;;;;;;22.07;40.33;94768.59;2088595;28;1468;-73
2022/04/11 01:40:29;;;;;;;;;;;;;;;22.08;40.40;94770.25;2081989;28;1463;-74
2022/04/11 01:41:30;;;;;;;;;;;;;;;22.07;40.49;94776.63;2090493;28;1573;-73
2022/04/11 01:42:32;;;;;;;;;;;;;;;22.07;40.37;94768.59;2086085;28;1424;-73
2022/04/11 01:43:34;;;;;;;;;;;;;;;22.08;40.69;94785.47;2080913;28;1123;-74
2022/04/11 01:44:35;;;;;;;;;;;;;;;22.06;40.63;94783.03;2085219;28;1198;-73
2022/04/11 01:45:40;;;;;;;;;;;;;;;22.07;40.52;94773.94;2089819;28;1640;-73
2022/04/11 01:46:44;;;;;;;;;;;;;;;22.06;40.39;94788.38;2090048;28;1086;-75
2022/04/11 01:47:46;;;;;;;;;;;;;;;22.07;40.36;94779.31;2089542;28;1171;-73
2022/04/11 01:48:48;;;;;;;;;;;;;;;22.08;40.61;94777.44;2086599;28;1650;-73
2022/04/11 01:49:49;;;;;;;;;;;;;;;22.06;40.64;94788.38;2087952;28;1902;-73
2022/04/11 01:50:51;;;;;;;;;;;;;;;22.07;40.75;94778.50;2097381;28;1104;-73
2022/04/11 01:51:53;;;;;;;;;;;;;;;22.08;40.66;94790.81;2105286;28;1483;-72
2022/04/11 01:52:54;;;;;;;;;;;;;;;22.06;40.87;94793.72;2087102;28;1486;-73
2022/04/11 01:53:56;;;;;;;;;;;;;;;22.07;40.55;94794.53;2091248;28;1600;-73
2022/04/11 01:54:58;;;;;;;;;;;;;;;22.07;40.82;94787.34;2091064;28;1359;-73
2022/04/11 01:56:17;;;;;;;;;;;;;;;22.08;40.84;94798.84;2088307;28;1111;-72
2022/04/11 01:57:18;;;;;;;;;;;;;;;22.06;40.59;94788.38;2091453;28;1700;-72
2022/04/11 01:58:20;;;;;;;;;;;;;;;22.06;40.73;94800.94;2089507;28;1565;-70
2022/04/11 01:59:21;;;;;;;;;;;;;;;22.06;40.86;94801.75;2091074;28;1696;-71
2022/04/11 02:00:23;;;;;;;;;;;;;;;22.08;40.63;94801.53;2090621;28;1123;-71
2022/04/11 02:01:25;;;;;;;;;;;;;;;22.09;40.87;94809.34;2091118;28;1653;-70
2022/04/11 02:02:27;;;;;;;;;;;;;;;22.08;40.90;94818.41;2089678;28;1505;-71
2022/04/11 02:03:28;;;;;;;;;;;;;;;22.09;40.74;94808.53;2097819;28;1407;-72
2022/04/11 02:04:31;;;;;;;;;;;;;;;22.08;40.99;94815.75;2096476;28;1722;-73
2022/04/11 02:05:33;;;;;;;;;;;;;;;22.08;40.90;94813.06;2098879;28;1051;-73
2022/04/11 02:06:35;;;;;;;;;;;;;;;22.08;40.94;94818.41;2082988;28;1727;-73
2022/04/11 02:07:37;;;;;;;;;;;;;;;22.08;40.96;94817.56;2091256;28;1384;-73
2022/04/11 02:08:39;;;;;;;;;;;;;;;22.08;41.16;94825.59;2087643;28;1666;-73
2022/04/11 02:09:41;;;;;;;;;;;;;;;22.08;40.77;94823.75;2081631;28;1983;-73
2022/04/11 02:10:42;;;;;;;;;;;;;;;22.09;40.80;94827.25;2091782;28;1429;-73
2022/04/11 02:11:44;;;;;;;;;;;;;;;22.08;40.96;94829.13;2090789;28;1083;-73
2022/04/11 02:12:47;;;;;;;;;;;;;;;22.08;41.20;94839.81;2091337;28;1127;-73
2022/04/11 02:13:49;;;;;;;;;;;;;;;22.09;41.08;94841.44;2091026;28;1540;-74
2022/04/11 02:14:50;;;;;;;;;;;;;;;22.08;41.01;94837.16;2089705;28;1299;-69
2022/04/11 02:15:52;;;;;;;;;;;;;;;22.07;41.22;94838.16;2093415;28;1701;-70
2022/04/11 02:16:53;;;;;;;;;;;;;;;22.09;41.04;94846.78;2079460;28;1577;-69
2022/04/11 02:17:55;;;;;;;;;;;;;;;22.12;40.98;94849.03;2077715;28;1758;-72
2022/04/11 02:18:57;;;;;;;;;;;;;;;22.12;41.10;94841.00;2090249;28;1722;-69
2022/04/11 02:19:58;;;;;;;;;;;;;;;22.12;41.17;94859.72;2098552;28;1127;-69
2022/04/11 02:21:00;;;;;;;;;;;;;;;22.12;41.19;94851.69;2103512;28;1292;-69
2022/04/11 02:22:02;;;;;;;;;;;;;;;22.13;40.86;94847.16;2090752;28;1313;-70
2022/04/11 02:23:03;;;;;;;;;;;;;;;22.15;40.97;94846.94;2090101;28;1495;-69
2022/04/11 02:24:05;;;;;;;;;;;;;;;22.18;41.00;94855.34;2090162;28;1607;-69
2022/04/11 02:25:07;;;;;;;;;;;;;;;22.22;40.68;94861.03;2090433;28;1246;-69
2022/04/11 02:26:09;;;;;;;;;;;;;;;22.24;40.66;94858.97;2090380;28;1103;-72
2022/04/11 02:27:10;;;;;;;;;;;;;;;22.22;40.74;94864.53;2095959;28;1509;-70
2022/04/11 02:28:12;;;;;;;;;;;;;;;22.22;40.62;94866.41;2104125;28;1558;-71
2022/04/11 02:29:14;;;;;;;;;;;;;;;22.20;40.82;94863.97;2086113;28;1511;-69
2022/04/11 02:30:17;;;;;;;;;;;;;;;22.19;40.71;94864.97;2090800;28;1979;-68
2022/04/11 02:31:18;;;;;;;;;;;;;;;22.18;40.51;94867.91;2091779;28;1682;-70
2022/04/11 02:32:21;;;;;;;;;;;;;;;22.17;40.98;94867.09;2091515;28;1027;-68
2022/04/11 02:33:22;;;;;;;;;;;;;;;22.20;41.34;94868.50;2087771;28;2052;-73
2022/04/11 02:34:25;;;;;;;;;;;;;;;22.20;40.93;94868.50;2090860;28;1226;-73
2022/04/11 02:35:27;;;;;;;;;;;;;;;22.18;41.03;94870.56;2090387;28;1439;-73
2022/04/11 02:36:29;;;;;;;;;;;;;;;22.18;40.75;94870.56;2090280;28;1475;-73
2022/04/11 02:37:31;;;;;;;;;;;;;;;22.17;40.87;94867.09;2089852;28;1343;-74
2022/04/11 02:38:33;;;;;;;;;;;;;;;22.16;41.05;94878.81;2101317;28;1043;-73
2022/04/11 02:39:34;;;;;;;;;;;;;;;22.16;41.11;94878.81;2088702;28;1221;-73
2022/04/11 02:40:36;;;;;;;;;;;;;;;22.15;41.15;94879.06;2091567;28;1944;-73
2022/04/11 02:41:37;;;;;;;;;;;;;;;22.14;41.01;94880.91;2088192;28;1472;-73
2022/04/11 02:42:43;;;;;;;;;;;;;;;22.13;41.14;94880.06;2082260;28;1379;-73
2022/04/11 02:43:45;;;;;;;;;;;;;;;22.13;41.11;94885.44;2089872;28;2020;-72
2022/04/11 02:44:46;;;;;;;;;;;;;;;22.13;40.84;94880.06;2091317;28;1333;-73
2022/04/11 02:45:48;;;;;;;;;;;;;;;22.13;41.02;94885.44;2091014;28;1500;-73
2022/04/11 02:46:50;;;;;;;;;;;;;;;22.12;40.99;94883.00;2095854;28;1309;-73
2022/04/11 02:47:51;;;;;;;;;;;;;;;22.12;41.29;94883.81;2091156;28;1066;-72
2022/04/11 02:48:53;;;;;;;;;;;;;;;22.12;40.80;94886.47;2092675;28;1315;-72
2022/04/11 02:49:54;;;;;;;;;;;;;;;22.13;41.08;94889.97;2092048;28;1906;-73
2022/04/11 02:50:56;;;;;;;;;;;;;;;22.11;41.35;94890.22;2088237;28;1983;-73
2022/04/11 02:51:58;;;;;;;;;;;;;;;22.12;41.09;94889.16;2099869;28;1036;-72
2022/04/11 02:52:59;;;;;;;;;;;;;;;22.11;40.83;94887.53;2097341;28;1489;-72
2022/04/11 02:54:07;;;;;;;;;;;;;;;22.12;41.11;94891.03;2089698;28;1599;-73
2022/04/11 02:55:09;;;;;;;;;;;;;;;22.12;41.05;94899.06;2091496;28;1186;-72
2022/04/11 02:56:10;;;;;;;;;;;;;;;22.12;41.09;94899.84;2093568;28;1132;-73
2022/04/11 02:57:12;;;;;;;;;;;;;;;22.11;41.26;94902.78;2090695;28;1647;-73
2022/04/11 02:58:15;;;;;;;;;;;;;;;22.12;40.92;94902.53;2088179;28;1492;-73
2022/04/11 02:59:16;;;;;;;;;;;;;;;22.11;41.32;94908.13;2092072;28;1703;-73
2022/04/11 03:00:18;;;;;;;;;;;;;;;22.10;41.20;94907.28;2091140;28;1089;-73
2022/04/11 03:01:19;;;;;;;;;;;;;;;22.08;40.85;94903.19;2089412;28;1578;-73
2022/04/11 03:02:21;;;;;;;;;;;;;;;22.11;40.85;94911.63;2087828;28;1516;-71
2022/04/11 03:03:23;;;;;;;;;;;;;;;22.18;41.35;94902.69;2086433;28;1622;-72
2022/04/11 03:04:24;;;;;;;;;;;;;;;20.82;33.82;94910.44;2092089;28;1314;-71
2022/04/11 03:05:26;;;;;;;;;;;;;;;19.70;32.72;94909.88;2093746;28;1294;-72
2022/04/11 03:06:27;;;;;;;;;;;;;;;18.99;33.42;94908.69;2099626;28;1040;-71
2022/04/11 03:07:29;;;;;;;;;;;;;;;18.38;35.21;94907.91;2099195;28;1062;-73
2022/04/11 03:08:31;;;;;;;;;;;;;;;17.84;35.07;94912.19;2098490;28;1535;-72
2022/04/11 03:09:33;;;;;;;;;;;;;;;17.59;35.66;94915.31;2093434;28;1519;-71
2022/04/11 03:10:34;;;;;;;;;;;;;;;17.89;36.94;94923.06;2090234;28;1905;-73
2022/04/11 03:11:36;;;;;;;;;;;;;;;17.47;35.56;94916.88;2089992;28;1708;-73
2022/04/11 03:12:37;;;;;;;;;;;;;;;17.00;34.67;94921.00;2083954;28;1543;-73
2022/04/11 03:13:39;;;;;;;;;;;;;;;16.63;36.74;94914.91;2089184;28;1495;-72
2022/04/11 03:14:41;;;;;;;;;;;;;;;16.52;36.35;94928.69;2098582;28;976;-72
2022/04/11 03:15:42;;;;;;;;;;;;;;;16.36;36.03;94923.59;2099092;28;1162;-73
2022/04/11 03:16:44;;;;;;;;;;;;;;;16.14;36.43;94923.56;2098223;28;1035;-73
2022/04/11 03:17:45;;;;;;;;;;;;;;;15.89;36.59;94919.59;2098670;28;1027;-73
2022/04/11 03:18:47;;;;;;;;;;;;;;;15.81;36.29;94929.28;2093024;28;1554;-72
2022/04/11 03:19:49;;;;;;;;;;;;;;;15.47;36.87;94928.97;2091048;28;1550;-73
2022/04/11 03:20:50;;;;;;;;;;;;;;;15.36;37.25;94928.44;2095715;28;1448;-72
2022/04/11 03:21:52;;;;;;;;;;;;;;;15.22;37.57;94933.69;2092263;28;1390;-73
2022/04/11 03:22:53;;;;;;;;;;;;;;;15.16;37.51;94937.88;2092583;28;1558;-73
2022/04/11 03:23:55;;;;;;;;;;;;;;;15.09;37.39;94934.31;2087101;28;1247;-73
2022/04/11 03:24:56;;;;;;;;;;;;;;;14.89;37.80;94940.09;2097766;28;1632;-71
2022/04/11 03:25:58;;;;;;;;;;;;;;;14.88;37.92;94945.53;2094238;28;1700;-72
2022/04/11 03:27:00;;;;;;;;;;;;;;;14.79;37.99;94934.19;2088273;28;1601;-73
2022/04/11 03:28:01;;;;;;;;;;;;;;;14.72;38.24;94946.50;2090140;28;1743;-72
2022/04/11 03:29:03;;;;;;;;;;;;;;;14.57;38.29;94937.63;2090633;28;1519;-73
2022/04/11 03:30:04;;;;;;;;;;;;;;;14.60;38.21;94939.97;2088205;28;1906;-72
2022/04/11 03:31:06;;;;;;;;;;;;;;;14.53;38.12;94943.28;2091507;28;1373;-72
2022/04/11 03:32:08;;;;;;;;;;;;;;;14.56;37.75;94943.94;2088238;28;1613;-72
2022/04/11 03:33:11;;;;;;;;;;;;;;;14.28;37.64;94942.63;2083445;28;4170;-73
2022/04/11 03:34:12;;;;;;;;;;;;;;;14.19;38.65;94956.84;2091238;28;1507;-72
2022/04/11 03:35:14;;;;;;;;;;;;;;;14.20;37.86;94957.72;2084971;28;1701;-72
2022/04/11 03:36:15;;;;;;;;;;;;;;;14.16;38.73;94959.84;2091484;28;1678;-73
2022/04/11 03:37:17;;;;;;;;;;;;;;;13.96;39.27;94956.81;2088923;28;1639;-73
2022/04/11 03:38:19;;;;;;;;;;;;;;;13.93;39.19;94958.97;2090048;28;1174;-73
2022/04/11 03:39:21;;;;;;;;;;;;;;;14.00;39.56;94967.88;2091282;28;1115;-74
2022/04/11 03:40:22;;;;;;;;;;;;;;;14.03;39.33;94970.97;2089720;28;1721;-73
2022/04/11 03:41:25;;;;;;;;;;;;;;;14.11;39.82;94967.47;2089654;28;1698;-72
2022/04/11 03:42:27;;;;;;;;;;;;;;;14.19;38.91;94967.44;2084084;28;1811;-72
2022/04/11 03:43:29;;;;;;;;;;;;;;;14.03;38.75;94973.63;2082628;28;1016;-70
2022/04/11 03:44:30;;;;;;;;;;;;;;;14.02;38.69;94974.59;2084010;28;1450;-70
2022/04/11 03:45:32;;;;;;;;;;;;;;;13.92;39.71;94975.81;2086781;28;1549;-70
2022/04/11 03:46:33;;;;;;;;;;;;;;;13.97;40.63;94979.59;2093489;28;1170;-70
2022/04/11 03:47:35;;;;;;;;;;;;;;;14.01;40.56;94975.59;2098410;28;1054;-70
2022/04/11 03:48:36;;;;;;;;;;;;;;;14.03;40.64;94981.56;2098731;28;1213;-70
2022/04/11 03:49:38;;;;;;;;;;;;;;;14.10;40.88;94981.69;2098523;28;1154;-72
2022/04/11 03:50:40;;;;;;;;;;;;;;;14.52;40.63;94983.94;2098771;28;1906;-70
2022/04/11 03:51:41;;;;;;;;;;;;;;;14.62;39.43;94983.72;2099298;28;1037;-71
2022/04/11 03:52:43;;;;;;;;;;;;;;;14.69;40.70;94979.41;2095666;28;1685;-75
2022/04/11 03:53:44;;;;;;;;;;;;;;;15.19;39.77;94978.06;2089583;28;1124;-70
2022/04/11 03:54:46;;;;;;;;;;;;;;;15.82;40.44;94983.91;2089915;28;1107;-71
2022/04/11 03:55:47;;;;;;;;;;;;;;;16.52;38.79;94985.19;2094080;28;1501;-72
2022/04/11 03:56:49;;;;;;;;;;;;;;;17.02;38.79;94976.56;2087469;28;1791;-72
2022/04/11 03:57:51;;;;;;;;;;;;;;;17.43;38.43;94982.00;2094731;28;1482;-71
2022/04/11 03:58:52;;;;;;;;;;;;;;;17.75;37.92;94988.59;2101883;28;1080;-71
2022/04/11 03:59:54;;;;;;;;;;;;;;;17.96;37.56;94979.75;2094970;28;1166;-70
2022/04/11 04:00:55;;;;;;;;;;;;;;;18.13;37.21;94977.59;2092054;28;1031;-70
2022/04/11 04:01:58;;;;;;;;;;;;;;;18.28;37.08;94988.91;2089398;28;1115;-71
2022/04/11 04:03:06;;;;;;;;;;;;;;;18.43;36.78;94986.09;2088275;28;1155;-70
2022/04/11 04:04:08;;;;;;;;;;;;;;;18.55;36.44;94981.03;2089627;28;1108;-71
2022/04/11 04:05:09;;;;;;;;;;;;;;;18.65;36.17;94983.31;2089070;28;1449;-70
2022/04/11 04:06:11;;;;;;;;;;;;;;;18.74;36.00;94990.94;2089894;28;1220;-70
2022/04/11 04:07:13;;;;;;;;;;;;;;;18.86;36.38;94985.03;2091402;28;1682;-75
2022/04/11 04:08:18;;;;;;;;;;;;;;;18.99;36.26;94988.56;2069862;28;1465;-72
2022/04/11 04:09:19;;;;;;;;;;;;;;;19.14;36.58;94982.22;2085745;28;1666;-72
2022/04/11 04:10:21;;;;;;;;;;;;;;;19.22;37.81;94984.69;2090059;28;1906;-73
2022/04/11 04:11:23;;;;;;;;;;;;;;;19.32;37.94;94992.28;2083180;28;1190;-75
2022/04/11 04:12:24;;;;;;;;;;;;;;;19.36;38.24;94986.34;2084854;28;1541;-74
2022/04/11 04:13:26;;;;;;;;;;;;;;;19.44;39.15;94994.13;2084054;28;1173;-73
2022/04/11 04:14:28;;;;;;;;;;;;;;;19.50;38.94;94981.84;2087515;28;1024;-71
2022/04/11 04:15:30;;;;;;;;;;;;;;;19.54;39.00;94987.59;2082500;28;1827;-70
2022/04/11 04:16:31;;;;;;;;;;;;;;;19.57;39.24;94990.66;2090060;28;1601;-70
2022/04/11 04:17:33;;;;;;;;;;;;;;;19.62;39.28;94990.06;2089108;28;1692;-71
2022/04/11 04:18:39;;;;;;;;;;;;;;;19.65;39.36;94997.66;2090656;28;1112;-72
2022/04/11 04:19:41;;;;;;;;;;;;;;;19.71;39.88;94996.00;2092023;28;1563;-72
2022/04/11 04:20:42;;;;;;;;;;;;;;;19.73;40.04;94999.28;2091321;28;1539;-73
2022/04/11 04:21:44;;;;;;;;;;;;;;;19.72;39.87;95001.16;2091294;28;1484;-72
2022/04/11 04:22:45;;;;;;;;;;;;;;;19.71;39.69;94999.47;2094439;28;1645;-72
2022/04/11 04:23:47;;;;;;;;;;;;;;;19.72;39.62;95000.28;2096786;28;1486;-72
2022/04/11 04:24:49;;;;;;;;;;;;;;;19.71;39.39;94999.47;2097265;28;1689;-72
2022/04/11 04:25:51;;;;;;;;;;;;;;;19.73;39.14;95002.78;2092360;28;1515;-72
2022/04/11 04:26:52;;;;;;;;;;;;;;;19.75;39.21;95011.38;2089526;28;1520;-72
2022/04/11 04:27:54;;;;;;;;;;;;;;;19.76;38.87;95013.03;2089446;28;1007;-72
2022/04/11 04:28:55;;;;;;;;;;;;;;;19.76;38.92;95018.34;2089699;28;1190;-71
2022/04/11 04:29:57;;;;;;;;;;;;;;;19.79;38.87;95012.59;2086374;28;1364;-73
2022/04/11 04:30:58;;;;;;;;;;;;;;;19.82;38.61;95019.38;2090178;28;1973;-72
2022/04/11 04:32:00;;;;;;;;;;;;;;;19.82;38.68;95014.03;2090269;28;1111;-72
2022/04/11 04:33:02;;;;;;;;;;;;;;;19.83;38.35;95013.84;2090565;28;1201;-72
2022/04/11 04:34:04;;;;;;;;;;;;;;;19.85;38.53;95017.09;2090305;28;1017;-72
2022/04/11 04:35:06;;;;;;;;;;;;;;;19.87;38.10;95020.41;2089803;28;1174;-72
2022/04/11 04:36:07;;;;;;;;;;;;;;;19.89;38.25;95015.69;2090474;28;1035;-72
2022/04/11 04:37:09;;;;;;;;;;;;;;;19.91;38.12;95019.97;2090068;28;1055;-73
2022/04/11 04:38:11;;;;;;;;;;;;;;;19.91;38.11;95020.78;2089614;28;1051;-72
2022/04/11 04:39:13;;;;;;;;;;;;;;;19.95;38.01;95026.56;2090482;28;1642;-72
2022/04/11 04:40:14;;;;;;;;;;;;;;;19.95;38.05;95030.03;2090170;28;1039;-72
2022/04/11 04:41:16;;;;;;;;;;;;;;;19.98;37.83;95034.13;2086182;28;1754;-71
2022/04/11 04:42:21;;;;;;;;;;;;;;;19.98;37.57;95028.81;2089483;28;1248;-72
2022/04/11 04:43:22;;;;;;;;;;;;;;;19.99;37.68;95033.09;2089718;28;1711;-72
2022/04/11 04:44:24;;;;;;;;;;;;;;;19.99;37.61;95036.59;2089406;28;1052;-73
2022/04/11 04:45:25;;;;;;;;;;;;;;;20.01;37.65;95036.38;2088999;28;1548;-73
2022/04/11 04:46:27;;;;;;;;;;;;;;;20.03;37.50;95040.50;2090562;28;1115;-73
2022/04/11 04:47:29;;;;;;;;;;;;;;;20.04;37.42;95043.97;2089583;28;1044;-73
2022/04/11 04:48:30;;;;;;;;;;;;;;;20.01;37.43;95037.19;2089520;28;1167;-72
2022/04/11 04:49:32;;;;;;;;;;;;;;;20.04;37.30;95049.31;2090084;28;1171;-72
2022/04/11 04:50:33;;;;;;;;;;;;;;;20.04;37.18;95051.97;2089151;28;1536;-73
2022/04/11 04:51:35;;;;;;;;;;;;;;;20.03;37.21;95050.31;2089914;28;1910;-73
2022/04/11 04:52:38;;;;;;;;;;;;;;;20.05;37.36;95056.28;2084982;28;1174;-73
2022/04/11 04:53:40;;;;;;;;;;;;;;;20.06;37.24;95060.56;2089778;28;1084;-73
2022/04/11 04:54:41;;;;;;;;;;;;;;;20.07;37.15;95062.22;2090801;28;1159;-72
2022/04/11 04:55:43;;;;;;;;;;;;;;;20.09;37.06;95060.19;2089958;28;1125;-73
2022/04/11 04:56:49;;;;;;;;;;;;;;;20.08;37.15;95058.53;2092657;28;1163;-74
2022/04/11 04:57:50;;;;;;;;;;;;;;;20.09;36.88;95060.19;2097524;28;1698;-72
2022/04/11 04:58:52;;;;;;;;;;;;;;;20.10;37.24;95067.16;2097973;28;1127;-72
2022/04/11 04:59:54;;;;;;;;;;;;;;;20.13;36.86;95065.91;2099606;28;984;-72
2022/04/11 05:00:55;;;;;;;;;;;;;;;20.11;36.97;95063.44;2098050;28;1115;-73
2022/04/11 05:01:57;;;;;;;;;;;;;;;20.12;36.97;95073.09;2107776;28;1115;-73
2022/04/11 05:02:59;;;;;;;;;;;;;;;20.13;37.00;95073.91;2111465;28;1013;-72
2022/04/11 05:04:01;;;;;;;;;;;;;;;20.13;36.90;95074.72;2097972;28;1630;-73
2022/04/11 05:05:13;;;;;;;;;;;;;;;20.14;36.68;95073.69;2099163;28;1017;-73
2022/04/11 05:06:15;;;;;;;;;;;;;;;20.15;36.84;95078.03;2098066;28;1039;-73
2022/04/11 05:07:17;;;;;;;;;;;;;;;20.17;36.65;95077.78;2099176;28;1033;-73
2022/04/11 05:08:18;;;;;;;;;;;;;;;20.17;36.88;95072.47;2098719;28;1111;-73
2022/04/11 05:09:20;;;;;;;;;;;;;;;20.18;36.52;95084.78;2096462;28;1277;-73
2022/04/11 05:10:21;;;;;;;;;;;;;;;20.19;36.61;95081.09;2099075;28;1514;-73
2022/04/11 05:11:24;;;;;;;;;;;;;;;20.20;36.64;95078.19;2098012;28;1957;-72
2022/04/11 05:12:26;;;;;;;;;;;;;;;20.21;36.41;95085.19;2098876;28;1171;-73
2022/04/11 05:13:27;;;;;;;;;;;;;;;20.22;36.40;95083.34;2098132;28;1092;-73
2022/04/11 05:14:29;;;;;;;;;;;;;;;20.21;36.40;95079.84;2093981;28;1145;-72
2022/04/11 05:15:31;;;;;;;;;;;;;;;20.23;36.51;95083.16;2098618;28;1112;-72
2022/04/11 05:16:32;;;;;;;;;;;;;;;20.23;36.36;95083.16;2087929;28;1108;-73
2022/04/11 05:17:34;;;;;;;;;;;;;;;20.24;36.50;95095.44;2098975;28;972;-72
2022/04/11 05:18:36;;;;;;;;;;;;;;;20.25;36.31;95091.75;2098632;28;1178;-73
2022/04/11 05:19:37;;;;;;;;;;;;;;;20.26;36.48;95096.06;2098695;28;1249;-73
2022/04/11 05:20:39;;;;;;;;;;;;;;;20.28;36.45;95093.19;2098997;28;1099;-73
2022/04/11 05:21:41;;;;;;;;;;;;;;;20.27;36.39;95092.34;2090104;28;1000;-73
2022/04/11 05:22:43;;;;;;;;;;;;;;;20.29;36.37;95101.00;2099061;28;981;-73
2022/04/11 05:23:44;;;;;;;;;;;;;;;20.29;36.26;95090.31;2098765;28;1052;-73
2022/04/11 05:24:46;;;;;;;;;;;;;;;20.30;36.33;95086.59;2095741;28;1188;-73
2022/04/11 05:25:47;;;;;;;;;;;;;;;20.31;36.29;95087.41;2095079;28;1157;-73
2022/04/11 05:26:49;;;;;;;;;;;;;;;20.31;36.19;95093.56;2098637;28;1123;-73
2022/04/11 05:27:51;;;;;;;;;;;;;;;20.33;36.26;95096.88;2092645;28;1103;-73